sensor_id;sensor_type;location;lat;lon;timestamp;P1;durP1;ratioP1;P2;durP2;ratioP2
21833;SDS011;11079;51.092;3.458;2022-07-10T00:00:38;11.07;;;6.18;;
21833;SDS011;11079;51.092;3.458;2022-07-10T00:03:04;12.38;;;7.22;;
21833;SDS011;11079;51.092;3.458;2022-07-10T00:05:32;10.70;;;6.47;;
21833;SDS011;11079;51.092;3.458;2022-07-10T00:08:01;12.70;;;7.22;;
21833;SDS011;11079;51.092;3.458;2022-07-10T00:10:27;12.05;;;7.47;;
21833;SDS011;11079;51.092;3.458;2022-07-10T00:12:53;11.65;;;6.53;;
21833;SDS011;11079;51.092;3.458;2022-07-10T00:15:19;13.20;;;8.25;;
21833;SDS011;11079;51.092;3.458;2022-07-10T00:17:45;13.15;;;8.20;;
21833;SDS011;11079;51.092;3.458;2022-07-10T00:20:11;12.25;;;7.55;;
21833;SDS011;11079;51.092;3.458;2022-07-10T00:22:38;14.23;;;7.70;;
21833;SDS011;11079;51.092;3.458;2022-07-10T00:25:04;13.43;;;7.65;;
21833;SDS011;11079;51.092;3.458;2022-07-10T00:27:31;10.52;;;7.63;;
21833;SDS011;11079;51.092;3.458;2022-07-10T00:29:57;13.45;;;7.95;;
21833;SDS011;11079;51.092;3.458;2022-07-10T00:32:23;16.17;;;8.38;;
21833;SDS011;11079;51.092;3.458;2022-07-10T00:34:49;12.65;;;8.35;;
21833;SDS011;11079;51.092;3.458;2022-07-10T00:37:15;20.30;;;8.70;;
21833;SDS011;11079;51.092;3.458;2022-07-10T00:39:41;13.43;;;7.82;;
21833;SDS011;11079;51.092;3.458;2022-07-10T00:42:11;13.57;;;8.23;;
21833;SDS011;11079;51.092;3.458;2022-07-10T00:44:38;13.35;;;8.40;;
21833;SDS011;11079;51.092;3.458;2022-07-10T00:47:05;14.68;;;7.45;;
21833;SDS011;11079;51.092;3.458;2022-07-10T00:49:32;13.75;;;7.90;;
21833;SDS011;11079;51.092;3.458;2022-07-10T00:52:02;12.57;;;8.02;;
21833;SDS011;11079;51.092;3.458;2022-07-10T00:54:31;15.60;;;8.45;;
21833;SDS011;11079;51.092;3.458;2022-07-10T00:56:58;12.98;;;8.30;;
21833;SDS011;11079;51.092;3.458;2022-07-10T00:59:25;12.82;;;7.88;;
21833;SDS011;11079;51.092;3.458;2022-07-10T01:01:51;13.73;;;8.15;;
21833;SDS011;11079;51.092;3.458;2022-07-10T01:04:17;15.50;;;8.77;;
21833;SDS011;11079;51.092;3.458;2022-07-10T01:06:43;13.63;;;8.68;;
21833;SDS011;11079;51.092;3.458;2022-07-10T01:09:09;17.80;;;8.73;;
21833;SDS011;11079;51.092;3.458;2022-07-10T01:11:35;14.30;;;8.52;;
21833;SDS011;11079;51.092;3.458;2022-07-10T01:14:02;13.30;;;8.65;;
21833;SDS011;11079;51.092;3.458;2022-07-10T01:16:29;15.68;;;8.65;;
21833;SDS011;11079;51.092;3.458;2022-07-10T01:18:56;15.75;;;8.68;;
21833;SDS011;11079;51.092;3.458;2022-07-10T01:21:22;15.10;;;9.02;;
21833;SDS011;11079;51.092;3.458;2022-07-10T01:23:56;14.70;;;8.55;;
21833;SDS011;11079;51.092;3.458;2022-07-10T01:26:22;15.60;;;8.32;;
21833;SDS011;11079;51.092;3.458;2022-07-10T01:28:52;13.15;;;8.88;;
21833;SDS011;11079;51.092;3.458;2022-07-10T01:31:20;16.50;;;9.23;;
21833;SDS011;11079;51.092;3.458;2022-07-10T01:33:50;16.05;;;9.00;;
21833;SDS011;11079;51.092;3.458;2022-07-10T01:36:16;16.92;;;9.73;;
21833;SDS011;11079;51.092;3.458;2022-07-10T01:38:44;15.85;;;9.80;;
21833;SDS011;11079;51.092;3.458;2022-07-10T01:41:10;16.80;;;9.77;;
21833;SDS011;11079;51.092;3.458;2022-07-10T01:43:36;18.25;;;9.10;;
21833;SDS011;11079;51.092;3.458;2022-07-10T01:46:02;12.02;;;8.77;;
21833;SDS011;11079;51.092;3.458;2022-07-10T01:48:29;16.40;;;8.80;;
21833;SDS011;11079;51.092;3.458;2022-07-10T01:50:55;14.13;;;8.98;;
21833;SDS011;11079;51.092;3.458;2022-07-10T01:53:21;13.43;;;9.00;;
21833;SDS011;11079;51.092;3.458;2022-07-10T01:55:47;13.38;;;9.07;;
21833;SDS011;11079;51.092;3.458;2022-07-10T01:58:13;12.68;;;8.63;;
21833;SDS011;11079;51.092;3.458;2022-07-10T02:00:38;14.77;;;8.77;;
21833;SDS011;11079;51.092;3.458;2022-07-10T02:03:04;12.10;;;8.70;;
21833;SDS011;11079;51.092;3.458;2022-07-10T02:05:49;14.25;;;9.75;;
21833;SDS011;11079;51.092;3.458;2022-07-10T02:08:14;15.85;;;9.05;;
21833;SDS011;11079;51.092;3.458;2022-07-10T02:10:40;13.05;;;9.05;;
21833;SDS011;11079;51.092;3.458;2022-07-10T02:13:06;16.73;;;8.88;;
21833;SDS011;11079;51.092;3.458;2022-07-10T02:15:32;13.85;;;8.57;;
21833;SDS011;11079;51.092;3.458;2022-07-10T02:17:57;18.73;;;9.50;;
21833;SDS011;11079;51.092;3.458;2022-07-10T02:20:23;12.00;;;9.00;;
21833;SDS011;11079;51.092;3.458;2022-07-10T02:22:48;21.40;;;9.73;;
21833;SDS011;11079;51.092;3.458;2022-07-10T02:25:14;12.15;;;8.13;;
21833;SDS011;11079;51.092;3.458;2022-07-10T02:27:40;15.63;;;8.80;;
21833;SDS011;11079;51.092;3.458;2022-07-10T02:30:06;15.70;;;8.98;;
21833;SDS011;11079;51.092;3.458;2022-07-10T02:32:31;14.57;;;8.70;;
21833;SDS011;11079;51.092;3.458;2022-07-10T02:34:57;16.52;;;8.95;;
21833;SDS011;11079;51.092;3.458;2022-07-10T02:37:23;14.38;;;8.90;;
21833;SDS011;11079;51.092;3.458;2022-07-10T02:39:48;12.32;;;8.30;;
21833;SDS011;11079;51.092;3.458;2022-07-10T02:42:14;16.17;;;10.38;;
21833;SDS011;11079;51.092;3.458;2022-07-10T02:44:40;13.77;;;9.75;;
21833;SDS011;11079;51.092;3.458;2022-07-10T02:47:06;15.40;;;9.52;;
21833;SDS011;11079;51.092;3.458;2022-07-10T02:49:32;16.77;;;8.95;;
21833;SDS011;11079;51.092;3.458;2022-07-10T02:51:58;14.20;;;9.57;;
21833;SDS011;11079;51.092;3.458;2022-07-10T02:54:24;12.82;;;9.05;;
21833;SDS011;11079;51.092;3.458;2022-07-10T02:56:50;18.42;;;9.63;;
21833;SDS011;11079;51.092;3.458;2022-07-10T02:59:16;13.30;;;8.73;;
21833;SDS011;11079;51.092;3.458;2022-07-10T03:01:43;14.02;;;9.20;;
21833;SDS011;11079;51.092;3.458;2022-07-10T03:04:09;13.68;;;9.00;;
21833;SDS011;11079;51.092;3.458;2022-07-10T03:06:34;17.23;;;8.98;;
21833;SDS011;11079;51.092;3.458;2022-07-10T03:09:00;28.98;;;11.85;;
21833;SDS011;11079;51.092;3.458;2022-07-10T03:11:26;15.05;;;8.95;;
21833;SDS011;11079;51.092;3.458;2022-07-10T03:13:51;12.40;;;9.45;;
21833;SDS011;11079;51.092;3.458;2022-07-10T03:16:17;16.60;;;9.23;;
21833;SDS011;11079;51.092;3.458;2022-07-10T03:18:43;15.68;;;8.70;;
21833;SDS011;11079;51.092;3.458;2022-07-10T03:21:08;17.67;;;9.50;;
21833;SDS011;11079;51.092;3.458;2022-07-10T03:23:34;12.75;;;9.15;;
21833;SDS011;11079;51.092;3.458;2022-07-10T03:25:59;13.70;;;10.02;;
21833;SDS011;11079;51.092;3.458;2022-07-10T03:28:25;13.00;;;9.30;;
21833;SDS011;11079;51.092;3.458;2022-07-10T03:30:51;14.85;;;9.30;;
21833;SDS011;11079;51.092;3.458;2022-07-10T03:33:16;17.90;;;10.35;;
21833;SDS011;11079;51.092;3.458;2022-07-10T03:35:42;15.18;;;9.35;;
21833;SDS011;11079;51.092;3.458;2022-07-10T03:38:07;14.38;;;9.13;;
21833;SDS011;11079;51.092;3.458;2022-07-10T03:40:33;16.08;;;10.27;;
21833;SDS011;11079;51.092;3.458;2022-07-10T03:42:59;11.27;;;8.25;;
21833;SDS011;11079;51.092;3.458;2022-07-10T03:45:25;18.40;;;9.38;;
21833;SDS011;11079;51.092;3.458;2022-07-10T03:47:50;14.85;;;8.45;;
21833;SDS011;11079;51.092;3.458;2022-07-10T03:50:16;14.00;;;8.25;;
21833;SDS011;11079;51.092;3.458;2022-07-10T03:52:42;15.43;;;8.45;;
21833;SDS011;11079;51.092;3.458;2022-07-10T03:55:09;15.65;;;8.35;;
21833;SDS011;11079;51.092;3.458;2022-07-10T03:57:35;10.07;;;8.70;;
21833;SDS011;11079;51.092;3.458;2022-07-10T04:00:19;13.88;;;8.32;;
21833;SDS011;11079;51.092;3.458;2022-07-10T04:02:47;11.95;;;8.38;;
21833;SDS011;11079;51.092;3.458;2022-07-10T04:05:13;12.77;;;8.13;;
21833;SDS011;11079;51.092;3.458;2022-07-10T04:07:39;10.25;;;7.78;;
21833;SDS011;11079;51.092;3.458;2022-07-10T04:10:05;12.82;;;8.23;;
21833;SDS011;11079;51.092;3.458;2022-07-10T04:12:31;10.70;;;8.23;;
21833;SDS011;11079;51.092;3.458;2022-07-10T04:14:57;12.80;;;7.70;;
21833;SDS011;11079;51.092;3.458;2022-07-10T04:17:23;11.98;;;7.70;;
21833;SDS011;11079;51.092;3.458;2022-07-10T04:19:48;11.82;;;8.57;;
21833;SDS011;11079;51.092;3.458;2022-07-10T04:22:14;14.35;;;8.20;;
21833;SDS011;11079;51.092;3.458;2022-07-10T04:24:40;13.57;;;7.55;;
21833;SDS011;11079;51.092;3.458;2022-07-10T04:27:05;11.98;;;7.30;;
21833;SDS011;11079;51.092;3.458;2022-07-10T04:29:32;13.02;;;7.72;;
21833;SDS011;11079;51.092;3.458;2022-07-10T04:31:57;12.25;;;7.60;;
21833;SDS011;11079;51.092;3.458;2022-07-10T04:34:23;12.88;;;7.95;;
21833;SDS011;11079;51.092;3.458;2022-07-10T04:36:49;12.05;;;7.43;;
21833;SDS011;11079;51.092;3.458;2022-07-10T04:39:15;11.63;;;8.00;;
21833;SDS011;11079;51.092;3.458;2022-07-10T04:41:41;11.93;;;8.05;;
21833;SDS011;11079;51.092;3.458;2022-07-10T04:44:06;10.68;;;7.45;;
21833;SDS011;11079;51.092;3.458;2022-07-10T04:46:32;12.90;;;7.97;;
21833;SDS011;11079;51.092;3.458;2022-07-10T04:48:57;10.10;;;7.38;;
21833;SDS011;11079;51.092;3.458;2022-07-10T04:51:23;14.38;;;7.78;;
21833;SDS011;11079;51.092;3.458;2022-07-10T04:53:49;11.80;;;6.80;;
21833;SDS011;11079;51.092;3.458;2022-07-10T04:56:15;9.73;;;6.88;;
21833;SDS011;11079;51.092;3.458;2022-07-10T04:58:42;12.13;;;6.60;;
21833;SDS011;11079;51.092;3.458;2022-07-10T05:01:07;8.05;;;6.35;;
21833;SDS011;11079;51.092;3.458;2022-07-10T05:03:33;9.43;;;5.63;;
21833;SDS011;11079;51.092;3.458;2022-07-10T05:05:58;9.60;;;6.07;;
21833;SDS011;11079;51.092;3.458;2022-07-10T05:08:24;11.82;;;5.70;;
21833;SDS011;11079;51.092;3.458;2022-07-10T05:10:50;7.47;;;5.53;;
21833;SDS011;11079;51.092;3.458;2022-07-10T05:13:15;8.32;;;4.70;;
21833;SDS011;11079;51.092;3.458;2022-07-10T05:15:41;8.70;;;4.95;;
21833;SDS011;11079;51.092;3.458;2022-07-10T05:18:07;5.82;;;4.47;;
21833;SDS011;11079;51.092;3.458;2022-07-10T05:20:32;6.38;;;4.30;;
21833;SDS011;11079;51.092;3.458;2022-07-10T05:23:00;6.70;;;4.10;;
21833;SDS011;11079;51.092;3.458;2022-07-10T05:25:26;7.22;;;4.05;;
21833;SDS011;11079;51.092;3.458;2022-07-10T05:27:56;8.18;;;4.72;;
21833;SDS011;11079;51.092;3.458;2022-07-10T05:30:22;6.28;;;4.22;;
21833;SDS011;11079;51.092;3.458;2022-07-10T05:32:48;6.90;;;4.00;;
21833;SDS011;11079;51.092;3.458;2022-07-10T05:35:14;8.32;;;4.50;;
21833;SDS011;11079;51.092;3.458;2022-07-10T05:37:40;6.72;;;4.22;;
21833;SDS011;11079;51.092;3.458;2022-07-10T05:40:06;9.65;;;4.85;;
21833;SDS011;11079;51.092;3.458;2022-07-10T05:42:33;6.03;;;3.58;;
21833;SDS011;11079;51.092;3.458;2022-07-10T05:44:59;7.60;;;4.13;;
21833;SDS011;11079;51.092;3.458;2022-07-10T05:47:25;4.90;;;3.28;;
21833;SDS011;11079;51.092;3.458;2022-07-10T05:49:51;7.47;;;3.00;;
21833;SDS011;11079;51.092;3.458;2022-07-10T05:52:16;5.53;;;3.00;;
21833;SDS011;11079;51.092;3.458;2022-07-10T05:54:42;6.03;;;3.00;;
21833;SDS011;11079;51.092;3.458;2022-07-10T05:57:08;4.40;;;2.53;;
21833;SDS011;11079;51.092;3.458;2022-07-10T05:59:33;4.75;;;2.40;;
21833;SDS011;11079;51.092;3.458;2022-07-10T06:02:00;7.68;;;2.25;;
21833;SDS011;11079;51.092;3.458;2022-07-10T06:04:26;6.80;;;2.40;;
21833;SDS011;11079;51.092;3.458;2022-07-10T06:06:52;5.57;;;2.15;;
21833;SDS011;11079;51.092;3.458;2022-07-10T06:09:17;3.55;;;2.20;;
21833;SDS011;11079;51.092;3.458;2022-07-10T06:11:43;3.63;;;1.88;;
21833;SDS011;11079;51.092;3.458;2022-07-10T06:14:11;5.18;;;1.90;;
21833;SDS011;11079;51.092;3.458;2022-07-10T06:16:37;7.53;;;2.53;;
21833;SDS011;11079;51.092;3.458;2022-07-10T06:19:03;4.15;;;2.03;;
21833;SDS011;11079;51.092;3.458;2022-07-10T06:21:28;4.78;;;2.00;;
21833;SDS011;11079;51.092;3.458;2022-07-10T06:23:54;6.15;;;1.75;;
21833;SDS011;11079;51.092;3.458;2022-07-10T06:26:20;5.25;;;1.83;;
21833;SDS011;11079;51.092;3.458;2022-07-10T06:28:46;4.72;;;1.95;;
21833;SDS011;11079;51.092;3.458;2022-07-10T06:31:11;3.03;;;1.40;;
21833;SDS011;11079;51.092;3.458;2022-07-10T06:33:37;6.55;;;1.83;;
21833;SDS011;11079;51.092;3.458;2022-07-10T06:36:06;4.95;;;2.08;;
21833;SDS011;11079;51.092;3.458;2022-07-10T06:38:32;5.15;;;1.80;;
21833;SDS011;11079;51.092;3.458;2022-07-10T06:40:58;5.65;;;1.67;;
21833;SDS011;11079;51.092;3.458;2022-07-10T06:43:24;4.00;;;1.98;;
21833;SDS011;11079;51.092;3.458;2022-07-10T06:45:49;4.53;;;1.95;;
21833;SDS011;11079;51.092;3.458;2022-07-10T06:48:15;3.72;;;1.88;;
21833;SDS011;11079;51.092;3.458;2022-07-10T06:50:42;3.47;;;1.75;;
21833;SDS011;11079;51.092;3.458;2022-07-10T06:53:08;3.72;;;1.30;;
21833;SDS011;11079;51.092;3.458;2022-07-10T06:55:33;2.35;;;1.20;;
21833;SDS011;11079;51.092;3.458;2022-07-10T06:58:00;4.35;;;1.30;;
21833;SDS011;11079;51.092;3.458;2022-07-10T07:00:26;1.85;;;1.20;;
21833;SDS011;11079;51.092;3.458;2022-07-10T07:02:53;3.53;;;1.00;;
21833;SDS011;11079;51.092;3.458;2022-07-10T07:05:18;2.53;;;1.02;;
21833;SDS011;11079;51.092;3.458;2022-07-10T07:07:46;4.63;;;1.15;;
21833;SDS011;11079;51.092;3.458;2022-07-10T07:10:12;3.78;;;0.90;;
21833;SDS011;11079;51.092;3.458;2022-07-10T07:12:38;3.20;;;1.20;;
21833;SDS011;11079;51.092;3.458;2022-07-10T07:15:06;2.63;;;0.95;;
21833;SDS011;11079;51.092;3.458;2022-07-10T07:17:32;3.30;;;1.08;;
21833;SDS011;11079;51.092;3.458;2022-07-10T07:20:21;4.45;;;1.17;;
21833;SDS011;11079;51.092;3.458;2022-07-10T07:23:07;3.28;;;1.20;;
21833;SDS011;11079;51.092;3.458;2022-07-10T07:25:35;3.90;;;1.15;;
21833;SDS011;11079;51.092;3.458;2022-07-10T07:28:01;4.82;;;1.33;;
21833;SDS011;11079;51.092;3.458;2022-07-10T07:30:27;4.78;;;1.15;;
21833;SDS011;11079;51.092;3.458;2022-07-10T07:32:52;2.15;;;1.10;;
21833;SDS011;11079;51.092;3.458;2022-07-10T07:35:18;4.00;;;1.15;;
21833;SDS011;11079;51.092;3.458;2022-07-10T07:37:44;2.35;;;0.90;;
21833;SDS011;11079;51.092;3.458;2022-07-10T07:40:12;3.25;;;1.10;;
21833;SDS011;11079;51.092;3.458;2022-07-10T07:42:39;5.03;;;1.33;;
21833;SDS011;11079;51.092;3.458;2022-07-10T07:45:06;3.20;;;1.02;;
21833;SDS011;11079;51.092;3.458;2022-07-10T07:47:43;2.58;;;1.00;;
21833;SDS011;11079;51.092;3.458;2022-07-10T07:50:13;4.25;;;1.45;;
21833;SDS011;11079;51.092;3.458;2022-07-10T07:52:40;6.60;;;1.13;;
21833;SDS011;11079;51.092;3.458;2022-07-10T07:55:07;3.65;;;1.17;;
21833;SDS011;11079;51.092;3.458;2022-07-10T07:57:34;4.55;;;1.40;;
21833;SDS011;11079;51.092;3.458;2022-07-10T07:59:59;2.78;;;1.13;;
21833;SDS011;11079;51.092;3.458;2022-07-10T08:02:25;3.35;;;1.23;;
21833;SDS011;11079;51.092;3.458;2022-07-10T08:04:50;2.20;;;1.10;;
21833;SDS011;11079;51.092;3.458;2022-07-10T08:07:16;4.75;;;1.38;;
21833;SDS011;11079;51.092;3.458;2022-07-10T08:09:42;6.43;;;1.48;;
21833;SDS011;11079;51.092;3.458;2022-07-10T08:12:09;3.40;;;1.00;;
21833;SDS011;11079;51.092;3.458;2022-07-10T08:14:35;4.13;;;1.33;;
21833;SDS011;11079;51.092;3.458;2022-07-10T08:17:01;4.47;;;1.33;;
21833;SDS011;11079;51.092;3.458;2022-07-10T08:19:26;4.22;;;0.85;;
21833;SDS011;11079;51.092;3.458;2022-07-10T08:21:52;3.45;;;1.02;;
21833;SDS011;11079;51.092;3.458;2022-07-10T08:24:18;3.13;;;1.23;;
21833;SDS011;11079;51.092;3.458;2022-07-10T08:26:43;5.65;;;1.23;;
21833;SDS011;11079;51.092;3.458;2022-07-10T08:29:09;5.40;;;1.13;;
21833;SDS011;11079;51.092;3.458;2022-07-10T08:31:35;4.28;;;1.10;;
21833;SDS011;11079;51.092;3.458;2022-07-10T08:34:01;3.97;;;0.90;;
21833;SDS011;11079;51.092;3.458;2022-07-10T08:36:26;2.20;;;0.90;;
21833;SDS011;11079;51.092;3.458;2022-07-10T08:38:52;2.50;;;1.00;;
21833;SDS011;11079;51.092;3.458;2022-07-10T08:41:24;3.65;;;1.30;;
21833;SDS011;11079;51.092;3.458;2022-07-10T08:43:51;3.97;;;1.08;;
21833;SDS011;11079;51.092;3.458;2022-07-10T08:46:17;3.30;;;1.00;;
21833;SDS011;11079;51.092;3.458;2022-07-10T08:48:46;2.53;;;0.90;;
21833;SDS011;11079;51.092;3.458;2022-07-10T08:51:13;2.63;;;0.93;;
21833;SDS011;11079;51.092;3.458;2022-07-10T08:53:50;4.30;;;1.00;;
21833;SDS011;11079;51.092;3.458;2022-07-10T08:56:17;3.00;;;1.10;;
21833;SDS011;11079;51.092;3.458;2022-07-10T08:58:42;3.65;;;1.10;;
21833;SDS011;11079;51.092;3.458;2022-07-10T09:01:09;2.05;;;0.82;;
21833;SDS011;11079;51.092;3.458;2022-07-10T09:03:34;3.67;;;1.00;;
21833;SDS011;11079;51.092;3.458;2022-07-10T09:06:02;1.92;;;1.00;;
21833;SDS011;11079;51.092;3.458;2022-07-10T09:08:30;2.80;;;1.30;;
21833;SDS011;11079;51.092;3.458;2022-07-10T09:11:14;3.17;;;0.90;;
21833;SDS011;11079;51.092;3.458;2022-07-10T09:13:50;4.35;;;1.10;;
21833;SDS011;11079;51.092;3.458;2022-07-10T09:16:24;2.25;;;0.88;;
21833;SDS011;11079;51.092;3.458;2022-07-10T09:18:54;4.05;;;1.02;;
21833;SDS011;11079;51.092;3.458;2022-07-10T09:21:21;4.03;;;1.05;;
21833;SDS011;11079;51.092;3.458;2022-07-10T09:23:48;3.72;;;1.20;;
21833;SDS011;11079;51.092;3.458;2022-07-10T09:26:14;4.78;;;2.08;;
21833;SDS011;11079;51.092;3.458;2022-07-10T09:28:40;5.05;;;1.65;;
21833;SDS011;11079;51.092;3.458;2022-07-10T09:31:06;2.42;;;0.93;;
21833;SDS011;11079;51.092;3.458;2022-07-10T09:33:31;3.10;;;0.90;;
21833;SDS011;11079;51.092;3.458;2022-07-10T09:41:20;3.28;;;1.33;;
21833;SDS011;11079;51.092;3.458;2022-07-10T09:44:00;2.22;;;0.82;;
21833;SDS011;11079;51.092;3.458;2022-07-10T09:46:36;5.25;;;1.10;;
21833;SDS011;11079;51.092;3.458;2022-07-10T09:51:34;3.20;;;1.10;;
21833;SDS011;11079;51.092;3.458;2022-07-10T09:54:02;2.83;;;1.13;;
21833;SDS011;11079;51.092;3.458;2022-07-10T09:56:34;5.00;;;1.20;;
21833;SDS011;11079;51.092;3.458;2022-07-10T09:59:08;5.22;;;2.10;;
21833;SDS011;11079;51.092;3.458;2022-07-10T10:01:43;3.72;;;1.40;;
21833;SDS011;11079;51.092;3.458;2022-07-10T10:04:31;3.97;;;0.98;;
21833;SDS011;11079;51.092;3.458;2022-07-10T10:07:01;3.28;;;1.48;;
21833;SDS011;11079;51.092;3.458;2022-07-10T10:09:29;2.70;;;0.70;;
21833;SDS011;11079;51.092;3.458;2022-07-10T10:12:00;6.07;;;2.33;;
21833;SDS011;11079;51.092;3.458;2022-07-10T10:14:32;3.15;;;1.40;;
21833;SDS011;11079;51.092;3.458;2022-07-10T10:16:59;3.80;;;1.13;;
21833;SDS011;11079;51.092;3.458;2022-07-10T10:19:26;3.15;;;0.95;;
21833;SDS011;11079;51.092;3.458;2022-07-10T10:22:12;3.72;;;1.00;;
21833;SDS011;11079;51.092;3.458;2022-07-10T10:24:40;4.90;;;1.00;;
21833;SDS011;11079;51.092;3.458;2022-07-10T10:27:07;5.10;;;1.50;;
21833;SDS011;11079;51.092;3.458;2022-07-10T10:29:35;4.22;;;1.40;;
21833;SDS011;11079;51.092;3.458;2022-07-10T10:32:02;3.28;;;1.40;;
21833;SDS011;11079;51.092;3.458;2022-07-10T10:34:45;3.90;;;1.70;;
21833;SDS011;11079;51.092;3.458;2022-07-10T10:37:32;3.85;;;1.25;;
21833;SDS011;11079;51.092;3.458;2022-07-10T10:40:01;3.70;;;1.00;;
21833;SDS011;11079;51.092;3.458;2022-07-10T10:42:35;5.68;;;1.42;;
21833;SDS011;11079;51.092;3.458;2022-07-10T10:48:09;7.05;;;3.28;;
21833;SDS011;11079;51.092;3.458;2022-07-10T10:50:38;3.38;;;1.25;;
21833;SDS011;11079;51.092;3.458;2022-07-10T10:58:36;2.33;;;0.73;;
21833;SDS011;11079;51.092;3.458;2022-07-10T11:01:04;1.45;;;0.70;;
21833;SDS011;11079;51.092;3.458;2022-07-10T11:03:30;4.03;;;0.90;;
21833;SDS011;11079;51.092;3.458;2022-07-10T11:06:06;1.17;;;0.57;;
21833;SDS011;11079;51.092;3.458;2022-07-10T11:08:37;2.53;;;0.90;;
21833;SDS011;11079;51.092;3.458;2022-07-10T11:13:56;2.90;;;1.05;;
21833;SDS011;11079;51.092;3.458;2022-07-10T11:16:24;3.38;;;1.10;;
21833;SDS011;11079;51.092;3.458;2022-07-10T11:18:53;1.67;;;0.90;;
21833;SDS011;11079;51.092;3.458;2022-07-10T11:21:23;1.85;;;0.73;;
21833;SDS011;11079;51.092;3.458;2022-07-10T11:23:56;1.85;;;0.98;;
21833;SDS011;11079;51.092;3.458;2022-07-10T11:26:58;2.25;;;0.98;;
21833;SDS011;11079;51.092;3.458;2022-07-10T11:29:28;2.67;;;1.13;;
21833;SDS011;11079;51.092;3.458;2022-07-10T11:32:02;3.88;;;1.13;;
21833;SDS011;11079;51.092;3.458;2022-07-10T11:34:35;2.83;;;1.13;;
21833;SDS011;11079;51.092;3.458;2022-07-10T11:37:02;3.40;;;1.10;;
21833;SDS011;11079;51.092;3.458;2022-07-10T11:39:28;3.95;;;1.10;;
21833;SDS011;11079;51.092;3.458;2022-07-10T11:41:54;3.30;;;1.23;;
21833;SDS011;11079;51.092;3.458;2022-07-10T11:44:20;2.58;;;1.02;;
21833;SDS011;11079;51.092;3.458;2022-07-10T11:46:46;2.17;;;1.10;;
21833;SDS011;11079;51.092;3.458;2022-07-10T11:49:14;2.55;;;1.20;;
21833;SDS011;11079;51.092;3.458;2022-07-10T11:51:41;2.97;;;0.90;;
21833;SDS011;11079;51.092;3.458;2022-07-10T11:56:37;1.80;;;0.70;;
21833;SDS011;11079;51.092;3.458;2022-07-10T11:59:06;3.33;;;1.00;;
21833;SDS011;11079;51.092;3.458;2022-07-10T12:01:56;3.70;;;1.40;;
21833;SDS011;11079;51.092;3.458;2022-07-10T12:04:22;2.92;;;1.02;;
21833;SDS011;11079;51.092;3.458;2022-07-10T12:06:52;2.55;;;1.00;;
21833;SDS011;11079;51.092;3.458;2022-07-10T12:09:22;3.13;;;0.88;;
21833;SDS011;11079;51.092;3.458;2022-07-10T12:11:59;2.20;;;0.95;;
21833;SDS011;11079;51.092;3.458;2022-07-10T12:14:29;1.85;;;0.85;;
21833;SDS011;11079;51.092;3.458;2022-07-10T12:16:55;4.70;;;1.58;;
21833;SDS011;11079;51.092;3.458;2022-07-10T12:19:23;2.97;;;0.82;;
21833;SDS011;11079;51.092;3.458;2022-07-10T12:21:55;3.20;;;1.58;;
21833;SDS011;11079;51.092;3.458;2022-07-10T12:24:22;1.73;;;1.00;;
21833;SDS011;11079;51.092;3.458;2022-07-10T12:26:49;2.75;;;1.38;;
21833;SDS011;11079;51.092;3.458;2022-07-10T12:29:21;3.38;;;2.15;;
21833;SDS011;11079;51.092;3.458;2022-07-10T12:31:49;5.93;;;3.28;;
21833;SDS011;11079;51.092;3.458;2022-07-10T12:34:16;3.75;;;2.42;;
21833;SDS011;11079;51.092;3.458;2022-07-10T12:36:46;4.93;;;1.60;;
21833;SDS011;11079;51.092;3.458;2022-07-10T12:39:22;5.70;;;1.48;;
21833;SDS011;11079;51.092;3.458;2022-07-10T12:42:02;2.35;;;0.82;;
21833;SDS011;11079;51.092;3.458;2022-07-10T12:44:33;2.17;;;1.30;;
21833;SDS011;11079;51.092;3.458;2022-07-10T12:47:10;2.97;;;1.10;;
21833;SDS011;11079;51.092;3.458;2022-07-10T12:52:30;2.63;;;0.70;;
21833;SDS011;11079;51.092;3.458;2022-07-10T12:57:45;3.15;;;0.85;;
21833;SDS011;11079;51.092;3.458;2022-07-10T13:00:11;2.42;;;0.85;;
21833;SDS011;11079;51.092;3.458;2022-07-10T13:02:38;5.47;;;1.17;;
21833;SDS011;11079;51.092;3.458;2022-07-10T13:05:04;3.13;;;1.10;;
21833;SDS011;11079;51.092;3.458;2022-07-10T13:09:58;3.53;;;1.00;;
21833;SDS011;11079;51.092;3.458;2022-07-10T13:12:28;3.15;;;0.80;;
21833;SDS011;11079;51.092;3.458;2022-07-10T13:14:54;1.77;;;0.90;;
21833;SDS011;11079;51.092;3.458;2022-07-10T13:17:19;2.45;;;1.17;;
21833;SDS011;11079;51.092;3.458;2022-07-10T13:19:45;2.85;;;1.00;;
21833;SDS011;11079;51.092;3.458;2022-07-10T13:22:11;2.25;;;0.80;;
21833;SDS011;11079;51.092;3.458;2022-07-10T13:24:37;2.97;;;0.82;;
21833;SDS011;11079;51.092;3.458;2022-07-10T13:27:03;2.63;;;0.88;;
21833;SDS011;11079;51.092;3.458;2022-07-10T13:29:29;3.13;;;0.73;;
21833;SDS011;11079;51.092;3.458;2022-07-10T13:31:54;2.17;;;1.40;;
21833;SDS011;11079;51.092;3.458;2022-07-10T13:34:20;3.03;;;0.85;;
21833;SDS011;11079;51.092;3.458;2022-07-10T13:36:46;3.65;;;0.70;;
21833;SDS011;11079;51.092;3.458;2022-07-10T13:39:11;3.50;;;1.00;;
21833;SDS011;11079;51.092;3.458;2022-07-10T13:41:37;5.57;;;2.10;;
21833;SDS011;11079;51.092;3.458;2022-07-10T13:44:03;3.35;;;1.63;;
21833;SDS011;11079;51.092;3.458;2022-07-10T13:46:29;2.83;;;0.98;;
21833;SDS011;11079;51.092;3.458;2022-07-10T13:48:55;2.13;;;0.70;;
21833;SDS011;11079;51.092;3.458;2022-07-10T13:51:21;2.58;;;0.93;;
21833;SDS011;11079;51.092;3.458;2022-07-10T13:53:47;2.13;;;1.02;;
21833;SDS011;11079;51.092;3.458;2022-07-10T13:56:13;1.90;;;0.80;;
21833;SDS011;11079;51.092;3.458;2022-07-10T13:58:38;1.63;;;0.82;;
21833;SDS011;11079;51.092;3.458;2022-07-10T14:01:04;2.75;;;0.70;;
21833;SDS011;11079;51.092;3.458;2022-07-10T14:03:30;1.15;;;0.60;;
21833;SDS011;11079;51.092;3.458;2022-07-10T14:05:56;1.58;;;0.90;;
21833;SDS011;11079;51.092;3.458;2022-07-10T14:08:22;3.15;;;1.08;;
21833;SDS011;11079;51.092;3.458;2022-07-10T14:10:49;1.70;;;0.85;;
21833;SDS011;11079;51.092;3.458;2022-07-10T14:13:14;1.77;;;0.85;;
21833;SDS011;11079;51.092;3.458;2022-07-10T14:15:40;1.63;;;1.10;;
21833;SDS011;11079;51.092;3.458;2022-07-10T14:18:09;3.47;;;1.13;;
21833;SDS011;11079;51.092;3.458;2022-07-10T14:20:35;2.08;;;1.00;;
21833;SDS011;11079;51.092;3.458;2022-07-10T14:23:19;4.05;;;1.15;;
21833;SDS011;11079;51.092;3.458;2022-07-10T14:25:45;3.42;;;1.40;;
21833;SDS011;11079;51.092;3.458;2022-07-10T14:28:11;2.05;;;1.13;;
21833;SDS011;11079;51.092;3.458;2022-07-10T14:30:38;2.45;;;1.50;;
21833;SDS011;11079;51.092;3.458;2022-07-10T14:33:08;3.03;;;1.35;;
21833;SDS011;11079;51.092;3.458;2022-07-10T14:35:34;1.70;;;0.90;;
21833;SDS011;11079;51.092;3.458;2022-07-10T14:38:00;3.55;;;0.80;;
21833;SDS011;11079;51.092;3.458;2022-07-10T14:40:26;1.73;;;1.10;;
21833;SDS011;11079;51.092;3.458;2022-07-10T14:42:51;0.70;;;0.70;;
21833;SDS011;11079;51.092;3.458;2022-07-10T14:45:22;1.67;;;1.10;;
21833;SDS011;11079;51.092;3.458;2022-07-10T14:47:49;1.63;;;0.95;;
21833;SDS011;11079;51.092;3.458;2022-07-10T14:50:15;3.33;;;0.82;;
21833;SDS011;11079;51.092;3.458;2022-07-10T14:52:44;1.92;;;0.88;;
21833;SDS011;11079;51.092;3.458;2022-07-10T14:55:10;2.85;;;1.15;;
21833;SDS011;11079;51.092;3.458;2022-07-10T14:57:36;2.20;;;0.70;;
21833;SDS011;11079;51.092;3.458;2022-07-10T15:00:04;2.88;;;0.93;;
21833;SDS011;11079;51.092;3.458;2022-07-10T15:02:39;1.10;;;0.90;;
21833;SDS011;11079;51.092;3.458;2022-07-10T15:11:03;2.38;;;0.80;;
21833;SDS011;11079;51.092;3.458;2022-07-10T15:13:34;2.88;;;0.50;;
21833;SDS011;11079;51.092;3.458;2022-07-10T15:16:02;0.55;;;0.50;;
21833;SDS011;11079;51.092;3.458;2022-07-10T15:18:34;1.13;;;0.70;;
21833;SDS011;11079;51.092;3.458;2022-07-10T15:21:08;2.28;;;0.90;;